Time;durP1;ratioP1;P1;durP2;ratioP2;P2;SDS_P1;SDS_P2;PMS_P1;PMS_P2;Temp;Humidity;BMP_temperature;BMP_pressure;BME280_temperature;BME280_humidity;BME280_pressure;Samples;Min_cycle;Max_cycle;Signal;HPM_P1;HPM_P2
2022/07/24 00:00:13;;;;;;;6.80;6.10;;;;;;;;;;523944;28;1663;-88
2022/07/24 00:00:29;;;;;;;7.15;6.30;;;;;;;;;;525468;28;1520;-88
2022/07/24 00:00:44;;;;;;;7.13;6.10;;;;;;;;;;527302;28;1485;-89
2022/07/24 00:01:00;;;;;;;7.70;6.05;;;;;;;;;;526348;28;1586;-88
2022/07/24 00:01:15;;;;;;;7.50;6.10;;;;;;;;;;526647;28;1393;-88
2022/07/24 00:01:31;;;;;;;6.77;6.07;;;;;;;;;;525017;28;1961;-88
2022/07/24 00:01:46;;;;;;;6.88;5.93;;;;;;;;;;527031;28;1468;-88
2022/07/24 00:02:02;;;;;;;6.75;5.97;;;;;;;;;;525934;28;1472;-88
2022/07/24 00:02:19;;;;;;;6.77;6.07;;;;;;;;;;525890;28;1577;-89
2022/07/24 00:02:35;;;;;;;6.75;6.15;;;;;;;;;;526517;28;1467;-88
2022/07/24 00:02:50;;;;;;;7.00;6.30;;;;;;;;;;528015;28;1459;-88
2022/07/24 00:03:06;;;;;;;6.80;6.20;;;;;;;;;;529077;28;1659;-90
2022/07/24 00:03:22;;;;;;;6.80;6.10;;;;;;;;;;526156;28;1395;-88
2022/07/24 00:03:37;;;;;;;7.10;6.15;;;;;;;;;;527155;28;1609;-88
2022/07/24 00:03:52;;;;;;;6.73;5.97;;;;;;;;;;527344;28;1550;-88
2022/07/24 00:04:08;;;;;;;6.43;5.82;;;;;;;;;;524085;28;1408;-88
2022/07/24 00:04:23;;;;;;;6.97;5.97;;;;;;;;;;522475;28;1348;-89
2022/07/24 00:04:41;;;;;;;7.38;6.20;;;;;;;;;;522378;28;1503;-89
2022/07/24 00:04:56;;;;;;;7.82;6.30;;;;;;;;;;521557;28;1433;-87
2022/07/24 00:05:12;;;;;;;7.63;5.90;;;;;;;;;;521424;28;1402;-88
2022/07/24 00:05:28;;;;;;;6.90;5.60;;;;;;;;;;521552;28;1501;-89
2022/07/24 00:05:44;;;;;;;6.68;5.75;;;;;;;;;;521088;28;1473;-88
2022/07/24 00:05:59;;;;;;;6.82;6.05;;;;;;;;;;521568;28;1648;-89
2022/07/24 00:06:15;;;;;;;6.77;6.07;;;;;;;;;;523485;28;1496;-88
2022/07/24 00:06:30;;;;;;;8.07;5.97;;;;;;;;;;524330;28;1371;-87
2022/07/24 00:06:46;;;;;;;8.00;5.90;;;;;;;;;;525344;28;1484;-88
2022/07/24 00:07:02;;;;;;;6.72;6.00;;;;;;;;;;528072;28;1526;-88
2022/07/24 00:07:17;;;;;;;6.93;5.90;;;;;;;;;;527818;28;1497;-88
2022/07/24 00:07:34;;;;;;;6.50;5.73;;;;;;;;;;527299;28;1546;-88
2022/07/24 00:07:49;;;;;;;6.40;5.80;;;;;;;;;;526704;28;1447;-88
2022/07/24 00:08:05;;;;;;;6.20;5.60;;;;;;;;;;526605;28;1405;-89
2022/07/24 00:08:20;;;;;;;6.53;5.60;;;;;;;;;;523466;28;1386;-88
2022/07/24 00:08:35;;;;;;;6.67;5.77;;;;;;;;;;525933;28;1430;-87
2022/07/24 00:08:51;;;;;;;6.82;5.72;;;;;;;;;;527641;28;1423;-88
2022/07/24 00:09:06;;;;;;;7.40;5.67;;;;;;;;;;527340;28;1526;-87
2022/07/24 00:09:22;;;;;;;7.47;5.70;;;;;;;;;;527257;28;1423;-88
2022/07/24 00:09:37;;;;;;;7.32;5.90;;;;;;;;;;526026;28;1448;-88
2022/07/24 00:09:54;;;;;;;7.37;6.10;;;;;;;;;;526428;28;1467;-87
2022/07/24 00:10:10;;;;;;;9.80;6.10;;;;;;;;;;525265;28;1492;-89
2022/07/24 00:10:26;;;;;;;9.85;6.03;;;;;;;;;;528407;28;1544;-87
2022/07/24 00:10:42;;;;;;;8.07;5.97;;;;;;;;;;525255;28;1435;-87
2022/07/24 00:10:58;;;;;;;7.53;5.75;;;;;;;;;;526617;28;1439;-88
2022/07/24 00:11:14;;;;;;;6.90;5.70;;;;;;;;;;526301;28;1404;-88
2022/07/24 00:11:29;;;;;;;6.93;5.77;;;;;;;;;;528143;28;1723;-88
2022/07/24 00:11:44;;;;;;;6.72;5.80;;;;;;;;;;528617;28;1677;-88
2022/07/24 00:12:00;;;;;;;6.97;5.80;;;;;;;;;;528310;28;1406;-88
2022/07/24 00:12:15;;;;;;;6.72;5.72;;;;;;;;;;526894;28;1427;-87
2022/07/24 00:12:31;;;;;;;6.83;5.93;;;;;;;;;;526158;28;1347;-89
2022/07/24 00:12:46;;;;;;;6.47;5.83;;;;;;;;;;524615;28;1445;-88
2022/07/24 00:13:02;;;;;;;6.67;5.70;;;;;;;;;;525320;28;1358;-88
2022/07/24 00:13:18;;;;;;;7.47;5.93;;;;;;;;;;525577;28;1476;-87
2022/07/24 00:13:33;;;;;;;7.05;5.97;;;;;;;;;;523799;28;1399;-88
2022/07/24 00:13:49;;;;;;;7.63;6.03;;;;;;;;;;521285;28;1351;-87
2022/07/24 00:14:04;;;;;;;8.10;5.93;;;;;;;;;;522062;28;1491;-88
2022/07/24 00:14:19;;;;;;;8.18;6.03;;;;;;;;;;521602;28;1443;-87
2022/07/24 00:14:35;;;;;;;7.53;6.13;;;;;;;;;;523845;28;1425;-88
2022/07/24 00:14:51;;;;;;;6.75;6.05;;;;;;;;;;524661;28;1604;-89
2022/07/24 00:15:08;;;;;;;6.75;6.05;;;;;;;;;;525645;28;1382;-88
2022/07/24 00:15:23;;;;;;;6.72;5.93;;;;;;;;;;524710;28;1432;-88
2022/07/24 00:15:38;;;;;;;7.27;5.70;;;;;;;;;;526352;28;1603;-88
2022/07/24 00:15:54;;;;;;;7.53;5.97;;;;;;;;;;528452;28;1404;-88
2022/07/24 00:16:09;;;;;;;7.05;5.97;;;;;;;;;;530157;28;1344;-87
2022/07/24 00:16:25;;;;;;;7.23;5.90;;;;;;;;;;532810;28;1374;-87
2022/07/24 00:16:40;;;;;;;6.85;5.72;;;;;;;;;;529401;28;1454;-88
2022/07/24 00:16:56;;;;;;;7.00;5.67;;;;;;;;;;527360;28;1415;-88
2022/07/24 00:17:11;;;;;;;8.43;6.00;;;;;;;;;;527205;28;1431;-88
2022/07/24 00:17:27;;;;;;;8.43;6.10;;;;;;;;;;527896;28;1419;-88
2022/07/24 00:17:42;;;;;;;6.72;5.97;;;;;;;;;;528089;28;1439;-88
2022/07/24 00:17:58;;;;;;;6.50;5.90;;;;;;;;;;526343;28;1656;-88
2022/07/24 00:18:13;;;;;;;7.80;5.97;;;;;;;;;;527942;28;1443;-87
2022/07/24 00:18:29;;;;;;;9.70;6.23;;;;;;;;;;525857;28;1484;-88
2022/07/24 00:18:45;;;;;;;9.00;6.20;;;;;;;;;;527054;28;1448;-89
2022/07/24 00:19:01;;;;;;;7.97;6.13;;;;;;;;;;527438;28;1541;-88
2022/07/24 00:19:16;;;;;;;7.22;6.15;;;;;;;;;;525611;28;1520;-88
2022/07/24 00:19:32;;;;;;;6.80;6.10;;;;;;;;;;525256;28;1610;-89
2022/07/24 00:19:47;;;;;;;7.33;6.10;;;;;;;;;;524547;28;1835;-91
2022/07/24 00:20:05;;;;;;;7.07;5.85;;;;;;;;;;522731;28;1470;-90
2022/07/24 00:20:21;;;;;;;6.68;5.97;;;;;;;;;;523071;28;1678;-90
2022/07/24 00:20:37;;;;;;;6.55;5.90;;;;;;;;;;522131;28;1762;-88
2022/07/24 00:20:53;;;;;;;6.35;5.75;;;;;;;;;;523699;28;1398;-89
2022/07/24 00:21:08;;;;;;;6.00;5.50;;;;;;;;;;523210;28;1584;-89
2022/07/24 00:21:23;;;;;;;6.68;5.97;;;;;;;;;;523570;28;1957;-88
2022/07/24 00:21:39;;;;;;;6.70;6.00;;;;;;;;;;525625;28;1520;-89
2022/07/24 00:21:55;;;;;;;6.30;5.70;;;;;;;;;;526345;28;1433;-87
2022/07/24 00:22:10;;;;;;;6.70;6.00;;;;;;;;;;525414;28;1417;-88
2022/07/24 00:22:25;;;;;;;6.70;6.00;;;;;;;;;;523207;28;1536;-88
2022/07/24 00:22:41;;;;;;;6.57;5.87;;;;;;;;;;522840;28;1471;-88
2022/07/24 00:22:56;;;;;;;6.43;5.80;;;;;;;;;;520814;28;1405;-88
2022/07/24 00:23:12;;;;;;;6.40;5.80;;;;;;;;;;520718;28;1521;-89
2022/07/24 00:23:27;;;;;;;7.23;5.70;;;;;;;;;;521501;28;1545;-90
2022/07/24 00:23:43;;;;;;;7.22;5.90;;;;;;;;;;520952;28;1433;-89
2022/07/24 00:23:58;;;;;;;6.40;5.80;;;;;;;;;;518828;28;1477;-88
2022/07/24 00:24:14;;;;;;;6.50;5.80;;;;;;;;;;522021;28;1389;-89
2022/07/24 00:24:30;;;;;;;6.57;5.87;;;;;;;;;;524246;28;1659;-88
2022/07/24 00:24:45;;;;;;;6.68;5.75;;;;;;;;;;526114;28;1776;-88
2022/07/24 00:25:01;;;;;;;7.38;5.82;;;;;;;;;;524374;28;1547;-90
2022/07/24 00:25:16;;;;;;;6.60;5.90;;;;;;;;;;523301;28;1726;-89
2022/07/24 00:25:32;;;;;;;6.47;5.88;;;;;;;;;;523399;28;1477;-89
2022/07/24 00:25:48;;;;;;;6.83;5.83;;;;;;;;;;524681;28;1409;-88
2022/07/24 00:26:04;;;;;;;9.55;6.00;;;;;;;;;;525792;28;1456;-90
2022/07/24 00:26:19;;;;;;;8.57;5.83;;;;;;;;;;522750;28;1357;-90
2022/07/24 00:26:35;;;;;;;6.22;5.63;;;;;;;;;;524458;28;1509;-88
2022/07/24 00:26:51;;;;;;;6.32;5.72;;;;;;;;;;524152;28;1623;-88
2022/07/24 00:27:06;;;;;;;6.47;5.87;;;;;;;;;;526054;28;1499;-88
2022/07/24 00:27:22;;;;;;;7.03;5.72;;;;;;;;;;523932;28;1414;-88
2022/07/24 00:27:37;;;;;;;7.30;5.60;;;;;;;;;;523453;28;1409;-89
2022/07/24 00:27:52;;;;;;;7.60;5.80;;;;;;;;;;523770;28;1629;-87
2022/07/24 00:28:08;;;;;;;7.68;5.88;;;;;;;;;;524478;28;1406;-88
2022/07/24 00:28:23;;;;;;;6.90;5.87;;;;;;;;;;522810;28;1759;-87
2022/07/24 00:28:39;;;;;;;6.95;5.93;;;;;;;;;;523957;28;1561;-88
2022/07/24 00:28:54;;;;;;;7.13;6.00;;;;;;;;;;523046;28;1382;-88
2022/07/24 00:29:09;;;;;;;7.03;5.87;;;;;;;;;;522642;28;1696;-88
2022/07/24 00:29:25;;;;;;;6.78;5.90;;;;;;;;;;525738;28;1484;-89
2022/07/24 00:29:40;;;;;;;6.43;5.80;;;;;;;;;;526024;28;1705;-88
2022/07/24 00:29:56;;;;;;;6.75;5.90;;;;;;;;;;526393;28;1479;-88
2022/07/24 00:30:11;;;;;;;6.90;6.17;;;;;;;;;;526344;28;1491;-87
2022/07/24 00:30:27;;;;;;;7.18;6.10;;;;;;;;;;525774;28;1329;-87
2022/07/24 00:30:42;;;;;;;7.40;6.17;;;;;;;;;;526109;28;1397;-88
2022/07/24 00:30:58;;;;;;;7.85;6.10;;;;;;;;;;522766;28;1397;-90
2022/07/24 00:31:13;;;;;;;8.40;6.07;;;;;;;;;;523857;28;1497;-88
2022/07/24 00:31:29;;;;;;;9.32;6.10;;;;;;;;;;525475;28;1587;-88
2022/07/24 00:31:45;;;;;;;9.07;6.40;;;;;;;;;;524637;28;1413;-87
2022/07/24 00:32:01;;;;;;;7.00;6.30;;;;;;;;;;523154;28;1575;-87
2022/07/24 00:32:16;;;;;;;6.90;6.17;;;;;;;;;;524899;28;1587;-87
2022/07/24 00:32:32;;;;;;;8.82;6.50;;;;;;;;;;526300;28;1484;-86
2022/07/24 00:32:47;;;;;;;8.77;6.30;;;;;;;;;;525836;28;1417;-88
2022/07/24 00:33:03;;;;;;;7.65;6.22;;;;;;;;;;526666;28;1424;-89
2022/07/24 00:33:18;;;;;;;8.37;6.60;;;;;;;;;;523244;28;1382;-88
2022/07/24 00:33:34;;;;;;;8.63;6.50;;;;;;;;;;520775;28;1653;-90
2022/07/24 00:33:49;;;;;;;7.83;6.40;;;;;;;;;;522186;28;1552;-88
2022/07/24 00:34:05;;;;;;;7.75;6.40;;;;;;;;;;520459;28;1403;-87
2022/07/24 00:34:20;;;;;;;9.83;6.30;;;;;;;;;;521609;28;1755;-88
2022/07/24 00:34:35;;;;;;;9.20;6.03;;;;;;;;;;522444;28;1460;-88
2022/07/24 00:34:51;;;;;;;7.72;6.15;;;;;;;;;;521511;28;1466;-88
2022/07/24 00:35:07;;;;;;;8.10;6.30;;;;;;;;;;521404;28;1423;-88
2022/07/24 00:35:22;;;;;;;8.43;6.20;;;;;;;;;;524024;28;1462;-89
2022/07/24 00:35:38;;;;;;;8.82;6.28;;;;;;;;;;525475;28;1460;-88
2022/07/24 00:35:53;;;;;;;10.60;6.27;;;;;;;;;;526199;28;1626;-87
2022/07/24 00:36:09;;;;;;;11.25;6.32;;;;;;;;;;524416;28;1611;-88
2022/07/24 00:36:24;;;;;;;7.73;6.20;;;;;;;;;;523623;28;1536;-87
2022/07/24 00:36:43;;;;;;;9.77;6.00;;;;;;;;;;521071;28;1478;-87
2022/07/24 00:36:58;;;;;;;9.73;6.07;;;;;;;;;;522299;28;1493;-88
2022/07/24 00:37:13;;;;;;;9.27;6.23;;;;;;;;;;522820;28;1651;-88
2022/07/24 00:37:29;;;;;;;7.85;6.20;;;;;;;;;;523500;28;1508;-88
2022/07/24 00:37:46;;;;;;;7.30;6.27;;;;;;;;;;523958;28;1437;-88
2022/07/24 00:38:02;;;;;;;7.63;6.50;;;;;;;;;;524512;28;1311;-88
2022/07/24 00:38:18;;;;;;;7.43;6.32;;;;;;;;;;524954;28;1408;-88
2022/07/24 00:38:33;;;;;;;7.38;6.22;;;;;;;;;;524563;28;1559;-88
2022/07/24 00:38:49;;;;;;;6.88;6.18;;;;;;;;;;524471;28;1511;-88
2022/07/24 00:39:04;;;;;;;7.70;6.40;;;;;;;;;;525942;28;1583;-88
2022/07/24 00:39:20;;;;;;;8.17;6.50;;;;;;;;;;525680;28;1472;-88
2022/07/24 00:39:35;;;;;;;7.80;6.50;;;;;;;;;;523557;28;1551;-88
2022/07/24 00:39:51;;;;;;;7.63;6.60;;;;;;;;;;523380;28;1429;-88
2022/07/24 00:40:07;;;;;;;7.13;6.13;;;;;;;;;;523832;28;1542;-88
2022/07/24 00:40:22;;;;;;;8.00;6.00;;;;;;;;;;525789;28;1485;-88
2022/07/24 00:40:38;;;;;;;7.90;6.33;;;;;;;;;;524365;28;1642;-88
2022/07/24 00:40:54;;;;;;;7.63;6.28;;;;;;;;;;523151;28;1592;-89
2022/07/24 00:41:09;;;;;;;7.07;6.00;;;;;;;;;;522433;28;1762;-89
2022/07/24 00:41:25;;;;;;;7.07;6.10;;;;;;;;;;521914;28;1891;-87
2022/07/24 00:41:40;;;;;;;7.20;6.32;;;;;;;;;;525691;28;1479;-88
2022/07/24 00:41:56;;;;;;;6.90;6.20;;;;;;;;;;525852;28;1436;-87
2022/07/24 00:42:12;;;;;;;6.90;6.20;;;;;;;;;;527159;28;1495;-88
2022/07/24 00:42:28;;;;;;;7.18;6.30;;;;;;;;;;524915;28;1389;-87
2022/07/24 00:42:43;;;;;;;7.38;6.60;;;;;;;;;;523107;28;1387;-87
2022/07/24 00:42:58;;;;;;;7.20;6.60;;;;;;;;;;522102;28;1462;-88
2022/07/24 00:43:16;;;;;;;7.00;6.30;;;;;;;;;;524327;28;1517;-89
2022/07/24 00:43:31;;;;;;;7.95;6.03;;;;;;;;;;521124;28;1506;-88
2022/07/24 00:44:04;;;;;;;7.80;6.20;;;;;;;;;;523306;28;1477;-90
2022/07/24 00:44:19;;;;;;;7.53;6.30;;;;;;;;;;521630;28;1534;-91
2022/07/24 00:44:36;;;;;;;7.22;6.53;;;;;;;;;;524037;28;1517;-86
2022/07/24 00:44:51;;;;;;;7.35;6.50;;;;;;;;;;524955;28;2296;-88
2022/07/24 00:45:07;;;;;;;7.50;6.27;;;;;;;;;;521110;28;1744;-88
2022/07/24 00:45:23;;;;;;;7.47;6.10;;;;;;;;;;524131;28;1455;-88
2022/07/24 00:45:38;;;;;;;8.52;6.10;;;;;;;;;;525143;28;1535;-88
2022/07/24 00:45:54;;;;;;;7.70;6.33;;;;;;;;;;526984;28;1481;-88
2022/07/24 00:46:09;;;;;;;7.05;6.30;;;;;;;;;;527846;28;1458;-88
2022/07/24 00:46:24;;;;;;;7.33;6.37;;;;;;;;;;528401;28;1494;-88
2022/07/24 00:46:43;;;;;;;7.13;6.43;;;;;;;;;;528400;28;1434;-87
2022/07/24 00:46:59;;;;;;;6.93;6.15;;;;;;;;;;529947;28;1548;-88
2022/07/24 00:47:14;;;;;;;7.50;6.38;;;;;;;;;;529080;28;1467;-88
2022/07/24 00:47:30;;;;;;;7.90;6.57;;;;;;;;;;527616;28;1486;-88
2022/07/24 00:47:46;;;;;;;7.40;6.43;;;;;;;;;;525859;28;1472;-88
2022/07/24 00:48:01;;;;;;;7.00;6.30;;;;;;;;;;526116;28;1471;-87
2022/07/24 00:48:17;;;;;;;7.20;6.22;;;;;;;;;;526725;28;1633;-87
2022/07/24 00:48:32;;;;;;;7.83;6.43;;;;;;;;;;526019;28;1512;-88
2022/07/24 00:48:47;;;;;;;7.40;6.60;;;;;;;;;;525823;28;1393;-87
2022/07/24 00:49:04;;;;;;;8.63;6.47;;;;;;;;;;522967;28;1485;-88
2022/07/24 00:49:20;;;;;;;9.25;6.68;;;;;;;;;;523876;28;1363;-88
2022/07/24 00:49:36;;;;;;;7.05;6.22;;;;;;;;;;524173;28;1623;-88
2022/07/24 00:49:51;;;;;;;6.73;6.00;;;;;;;;;;525657;28;1432;-87
2022/07/24 00:50:07;;;;;;;7.55;5.93;;;;;;;;;;525747;28;1887;-87
2022/07/24 00:50:23;;;;;;;8.25;5.80;;;;;;;;;;523831;28;1398;-87
2022/07/24 00:50:39;;;;;;;7.68;6.20;;;;;;;;;;524660;28;1428;-88
2022/07/24 00:50:55;;;;;;;8.20;6.53;;;;;;;;;;522438;28;1505;-88
2022/07/24 00:51:10;;;;;;;7.17;6.37;;;;;;;;;;524643;28;1500;-89
2022/07/24 00:51:26;;;;;;;6.88;6.18;;;;;;;;;;524748;28;1618;-87
2022/07/24 00:51:43;;;;;;;7.05;6.35;;;;;;;;;;522586;28;1433;-87
2022/07/24 00:51:59;;;;;;;7.70;6.13;;;;;;;;;;522262;28;1655;-88
2022/07/24 00:52:15;;;;;;;7.70;5.90;;;;;;;;;;525356;28;1582;-88
2022/07/24 00:52:31;;;;;;;7.20;6.10;;;;;;;;;;525607;28;1480;-88
2022/07/24 00:52:46;;;;;;;7.82;6.28;;;;;;;;;;525940;28;1506;-89
2022/07/24 00:53:03;;;;;;;7.57;6.07;;;;;;;;;;525817;28;1575;-89
2022/07/24 00:53:19;;;;;;;8.68;6.18;;;;;;;;;;525365;28;1554;-87
2022/07/24 00:53:35;;;;;;;8.02;6.35;;;;;;;;;;524460;28;1492;-89
2022/07/24 00:53:50;;;;;;;7.20;6.30;;;;;;;;;;523790;28;1631;-88
2022/07/24 00:54:07;;;;;;;6.70;6.00;;;;;;;;;;525819;28;1371;-89
2022/07/24 00:54:23;;;;;;;7.22;5.97;;;;;;;;;;527210;28;1510;-90
2022/07/24 00:54:39;;;;;;;7.70;6.32;;;;;;;;;;526815;28;1416;-88
2022/07/24 00:54:55;;;;;;;7.90;6.30;;;;;;;;;;526188;28;1420;-87
2022/07/24 00:55:11;;;;;;;8.63;6.28;;;;;;;;;;525650;28;1841;-88
2022/07/24 00:55:27;;;;;;;8.05;6.22;;;;;;;;;;525925;28;1377;-88
2022/07/24 00:55:43;;;;;;;7.18;5.93;;;;;;;;;;524534;28;1469;-88
2022/07/24 00:55:59;;;;;;;6.35;5.75;;;;;;;;;;526759;28;1451;-87
2022/07/24 00:56:14;;;;;;;6.43;5.80;;;;;;;;;;525563;28;1594;-89
2022/07/24 00:56:30;;;;;;;6.50;5.80;;;;;;;;;;524011;28;1617;-88
2022/07/24 00:56:48;;;;;;;6.47;5.88;;;;;;;;;;524500;28;1492;-88
2022/07/24 00:57:04;;;;;;;6.55;5.90;;;;;;;;;;524740;28;1432;-91
2022/07/24 00:57:19;;;;;;;6.97;5.90;;;;;;;;;;523822;28;1675;-88
2022/07/24 00:57:34;;;;;;;7.65;6.07;;;;;;;;;;523995;28;1512;-89
2022/07/24 00:57:50;;;;;;;6.83;6.10;;;;;;;;;;522236;28;1435;-88
2022/07/24 00:58:06;;;;;;;6.78;6.07;;;;;;;;;;523789;28;1460;-87
2022/07/24 00:58:22;;;;;;;7.50;6.03;;;;;;;;;;526275;28;1397;-89
2022/07/24 00:58:38;;;;;;;7.60;6.15;;;;;;;;;;523654;28;1572;-87
2022/07/24 00:58:53;;;;;;;7.13;6.10;;;;;;;;;;522248;28;1492;-87
2022/07/24 00:59:09;;;;;;;7.20;6.05;;;;;;;;;;522073;28;1784;-88
2022/07/24 00:59:24;;;;;;;6.87;5.97;;;;;;;;;;521392;28;1427;-88
2022/07/24 00:59:40;;;;;;;6.78;6.07;;;;;;;;;;521636;28;1450;-87
2022/07/24 00:59:55;;;;;;;6.80;6.10;;;;;;;;;;522031;28;1233;-88
2022/07/24 01:00:12;;;;;;;6.70;5.95;;;;;;;;;;524572;28;1266;-88
2022/07/24 01:00:27;;;;;;;7.10;6.13;;;;;;;;;;524539;28;1616;-88
2022/07/24 01:00:43;;;;;;;6.80;6.10;;;;;;;;;;524300;28;1572;-89
2022/07/24 01:00:58;;;;;;;6.70;6.00;;;;;;;;;;524221;28;1418;-89
2022/07/24 01:01:15;;;;;;;7.45;6.15;;;;;;;;;;521457;28;1487;-88
2022/07/24 01:01:31;;;;;;;7.00;6.30;;;;;;;;;;522998;28;1944;-88
2022/07/24 01:01:47;;;;;;;7.10;6.40;;;;;;;;;;520673;28;1435;-88
2022/07/24 01:02:02;;;;;;;8.23;6.32;;;;;;;;;;521379;28;1486;-89
2022/07/24 01:02:18;;;;;;;7.40;6.37;;;;;;;;;;522861;28;1505;-89
2022/07/24 01:02:34;;;;;;;7.13;6.43;;;;;;;;;;525723;28;1428;-88
2022/07/24 01:02:50;;;;;;;7.82;6.28;;;;;;;;;;524897;28;1582;-87
2022/07/24 01:03:06;;;;;;;7.15;6.18;;;;;;;;;;525286;28;1676;-87
2022/07/24 01:03:21;;;;;;;6.73;6.03;;;;;;;;;;526238;28;1332;-88
2022/07/24 01:03:39;;;;;;;6.33;5.73;;;;;;;;;;528117;28;1471;-88
2022/07/24 01:03:55;;;;;;;7.10;6.00;;;;;;;;;;527466;28;1554;-88
2022/07/24 01:04:11;;;;;;;7.70;6.37;;;;;;;;;;528237;28;1470;-88
2022/07/24 01:04:26;;;;;;;6.70;5.95;;;;;;;;;;525937;28;1377;-88
2022/07/24 01:04:42;;;;;;;7.17;5.80;;;;;;;;;;525704;28;1429;-88
2022/07/24 01:04:57;;;;;;;7.37;6.00;;;;;;;;;;523720;28;1390;-88
2022/07/24 01:05:13;;;;;;;6.63;5.95;;;;;;;;;;523784;28;1616;-88
2022/07/24 01:05:28;;;;;;;6.50;5.90;;;;;;;;;;524114;28;1494;-88
2022/07/24 01:05:44;;;;;;;6.30;5.70;;;;;;;;;;524319;28;1419;-88
2022/07/24 01:06:00;;;;;;;6.15;5.60;;;;;;;;;;523978;28;1527;-88
2022/07/24 01:06:15;;;;;;;6.30;5.70;;;;;;;;;;522135;28;1577;-88
2022/07/24 01:06:31;;;;;;;7.18;5.88;;;;;;;;;;524426;28;1602;-87
2022/07/24 01:06:47;;;;;;;6.73;5.90;;;;;;;;;;524449;28;1494;-88
2022/07/24 01:07:02;;;;;;;6.60;6.00;;;;;;;;;;525815;28;1605;-88
2022/07/24 01:07:18;;;;;;;6.70;6.10;;;;;;;;;;525936;28;1468;-88
2022/07/24 01:07:34;;;;;;;6.60;5.90;;;;;;;;;;524064;28;1783;-90
2022/07/24 01:07:49;;;;;;;6.90;6.10;;;;;;;;;;524926;28;1500;-91
2022/07/24 01:08:04;;;;;;;6.87;6.17;;;;;;;;;;526920;28;1530;-92
2022/07/24 01:08:21;;;;;;;6.90;6.20;;;;;;;;;;525392;28;1570;-90
2022/07/24 01:08:37;;;;;;;7.22;6.40;;;;;;;;;;525869;28;1411;-89
2022/07/24 01:08:52;;;;;;;7.43;6.30;;;;;;;;;;523920;28;1583;-91
2022/07/24 01:09:08;;;;;;;8.25;6.40;;;;;;;;;;521843;28;1604;-88
2022/07/24 01:09:24;;;;;;;8.00;6.32;;;;;;;;;;520008;28;1698;-92
2022/07/24 01:09:40;;;;;;;6.97;6.27;;;;;;;;;;521882;28;1483;-91
2022/07/24 01:09:56;;;;;;;7.00;6.30;;;;;;;;;;523558;28;1602;-91
2022/07/24 01:10:11;;;;;;;7.20;6.40;;;;;;;;;;522371;28;1666;-91
2022/07/24 01:10:27;;;;;;;7.05;6.35;;;;;;;;;;523640;28;1432;-91
2022/07/24 01:10:42;;;;;;;6.93;6.23;;;;;;;;;;523441;28;1662;-92
2022/07/24 01:10:58;;;;;;;7.00;6.30;;;;;;;;;;523862;28;1395;-91
2022/07/24 01:11:14;;;;;;;7.30;6.60;;;;;;;;;;525507;28;1460;-91
2022/07/24 01:11:30;;;;;;;7.50;6.67;;;;;;;;;;525858;28;1597;-92
2022/07/24 01:11:45;;;;;;;6.90;6.15;;;;;;;;;;523667;28;1732;-92
2022/07/24 01:12:02;;;;;;;6.90;6.20;;;;;;;;;;521863;28;1598;-90
2022/07/24 01:12:18;;;;;;;7.07;6.38;;;;;;;;;;521821;28;1651;-90
2022/07/24 01:12:36;;;;;;;7.20;6.25;;;;;;;;;;519772;28;1486;-91
2022/07/24 01:12:51;;;;;;;8.00;6.30;;;;;;;;;;519984;28;1600;-91
2022/07/24 01:13:07;;;;;;;7.53;6.27;;;;;;;;;;520017;28;1980;-90
2022/07/24 01:13:23;;;;;;;7.13;6.43;;;;;;;;;;520768;28;1728;-92
2022/07/24 01:13:39;;;;;;;6.90;6.20;;;;;;;;;;523151;28;911;-90
2022/07/24 01:13:55;;;;;;;7.30;6.30;;;;;;;;;;524246;28;1241;-90
2022/07/24 01:14:11;;;;;;;7.17;6.33;;;;;;;;;;525314;28;1261;-91
2022/07/24 01:14:27;;;;;;;7.38;6.15;;;;;;;;;;526301;28;1249;-90
2022/07/24 01:14:42;;;;;;;7.60;6.57;;;;;;;;;;526799;28;1541;-90
2022/07/24 01:14:58;;;;;;;7.50;6.70;;;;;;;;;;523524;28;1460;-90
2022/07/24 01:15:14;;;;;;;7.30;6.50;;;;;;;;;;523460;28;1638;-91
2022/07/24 01:15:29;;;;;;;7.05;6.20;;;;;;;;;;522411;28;1595;-88
2022/07/24 01:15:46;;;;;;;7.20;6.00;;;;;;;;;;521939;28;1325;-88
2022/07/24 01:16:02;;;;;;;7.53;6.07;;;;;;;;;;522795;28;1721;-90
2022/07/24 01:16:18;;;;;;;7.97;6.53;;;;;;;;;;524748;28;1735;-89
2022/07/24 01:16:35;;;;;;;7.07;6.37;;;;;;;;;;524792;28;1478;-88
2022/07/24 01:16:51;;;;;;;6.97;6.28;;;;;;;;;;526042;28;1644;-91
2022/07/24 01:17:06;;;;;;;7.35;6.30;;;;;;;;;;523890;28;1694;-91
2022/07/24 01:17:21;;;;;;;7.43;6.20;;;;;;;;;;524067;28;1740;-91
2022/07/24 01:17:39;;;;;;;7.00;6.20;;;;;;;;;;525094;28;1519;-91
2022/07/24 01:17:55;;;;;;;6.90;6.22;;;;;;;;;;525006;28;1577;-89
2022/07/24 01:18:10;;;;;;;7.35;6.32;;;;;;;;;;525827;28;1509;-91
2022/07/24 01:18:26;;;;;;;7.87;6.30;;;;;;;;;;525856;28;1507;-90
2022/07/24 01:18:41;;;;;;;7.47;6.35;;;;;;;;;;525880;28;1597;-89
2022/07/24 01:18:56;;;;;;;7.13;6.20;;;;;;;;;;525864;28;1624;-90
2022/07/24 01:19:12;;;;;;;6.75;6.05;;;;;;;;;;523144;28;1592;-89
2022/07/24 01:19:28;;;;;;;6.90;6.18;;;;;;;;;;523840;28;1465;-91
2022/07/24 01:19:43;;;;;;;6.90;6.20;;;;;;;;;;521556;28;1668;-92
2022/07/24 01:19:59;;;;;;;6.90;6.20;;;;;;;;;;519912;28;1667;-88
2022/07/24 01:20:14;;;;;;;6.97;6.20;;;;;;;;;;522260;28;959;-91
2022/07/24 01:20:30;;;;;;;7.70;6.13;;;;;;;;;;524446;28;1478;-89
2022/07/24 01:20:47;;;;;;;7.35;6.30;;;;;;;;;;523552;28;1631;-90
2022/07/24 01:21:04;;;;;;;7.30;6.10;;;;;;;;;;523943;28;1701;-90
2022/07/24 01:21:19;;;;;;;7.80;6.10;;;;;;;;;;525353;28;1692;-90
2022/07/24 01:21:35;;;;;;;7.87;6.13;;;;;;;;;;524807;28;1858;-88
2022/07/24 01:21:52;;;;;;;8.23;6.35;;;;;;;;;;525190;28;1605;-88
2022/07/24 01:22:07;;;;;;;7.07;6.07;;;;;;;;;;523382;28;1654;-91
2022/07/24 01:22:23;;;;;;;7.00;6.00;;;;;;;;;;523797;28;1587;-89
2022/07/24 01:22:39;;;;;;;7.50;6.30;;;;;;;;;;525204;28;1673;-91
2022/07/24 01:22:54;;;;;;;7.13;6.00;;;;;;;;;;523516;28;1744;-89
2022/07/24 01:23:10;;;;;;;7.33;5.90;;;;;;;;;;522861;28;1689;-92
2022/07/24 01:23:25;;;;;;;7.82;6.20;;;;;;;;;;522588;28;1226;-91
2022/07/24 01:23:41;;;;;;;7.97;6.30;;;;;;;;;;524280;28;807;-91
2022/07/24 01:23:58;;;;;;;7.32;6.15;;;;;;;;;;522499;28;1182;-91
2022/07/24 01:24:13;;;;;;;6.70;6.00;;;;;;;;;;521880;28;1222;-89
2022/07/24 01:24:29;;;;;;;7.00;6.27;;;;;;;;;;522084;28;851;-92
2022/07/24 01:24:44;;;;;;;7.22;6.40;;;;;;;;;;522492;28;1294;-91
2022/07/24 01:25:00;;;;;;;7.00;6.30;;;;;;;;;;524101;28;1318;-89
2022/07/24 01:25:15;;;;;;;7.15;6.40;;;;;;;;;;523559;28;1592;-89
2022/07/24 01:25:30;;;;;;;7.50;6.17;;;;;;;;;;524561;28;1554;-91
2022/07/24 01:25:46;;;;;;;6.97;6.10;;;;;;;;;;522567;28;1476;-91
2022/07/24 01:26:02;;;;;;;7.00;6.35;;;;;;;;;;522882;28;1683;-91
2022/07/24 01:26:17;;;;;;;7.22;6.53;;;;;;;;;;519713;28;1355;-90
2022/07/24 01:26:32;;;;;;;6.73;6.03;;;;;;;;;;521756;28;1953;-90
2022/07/24 01:26:48;;;;;;;6.60;5.90;;;;;;;;;;519634;28;1604;-89
2022/07/24 01:27:04;;;;;;;7.60;6.15;;;;;;;;;;521733;28;1504;-90
2022/07/24 01:27:21;;;;;;;7.33;6.20;;;;;;;;;;523840;28;1567;-88
2022/07/24 01:27:36;;;;;;;6.65;6.05;;;;;;;;;;524520;28;1484;-91
2022/07/24 01:27:52;;;;;;;6.93;6.23;;;;;;;;;;524927;28;1671;-88
2022/07/24 01:28:07;;;;;;;7.30;6.50;;;;;;;;;;524957;28;1414;-89
2022/07/24 01:28:23;;;;;;;6.93;6.23;;;;;;;;;;523621;28;1471;-90
2022/07/24 01:28:38;;;;;;;6.67;6.07;;;;;;;;;;523733;28;1364;-90
2022/07/24 01:28:54;;;;;;;6.85;6.18;;;;;;;;;;521967;28;1551;-90
2022/07/24 01:29:09;;;;;;;6.70;6.10;;;;;;;;;;525109;28;1494;-90
2022/07/24 01:29:25;;;;;;;6.90;6.20;;;;;;;;;;524345;28;1590;-88
2022/07/24 01:29:40;;;;;;;7.40;6.30;;;;;;;;;;524137;28;1509;-88
2022/07/24 01:29:56;;;;;;;7.72;6.15;;;;;;;;;;525838;28;1434;-90
2022/07/24 01:30:11;;;;;;;7.27;6.10;;;;;;;;;;522706;28;1425;-89
2022/07/24 01:30:27;;;;;;;6.65;5.95;;;;;;;;;;525288;28;1514;-90
2022/07/24 01:30:42;;;;;;;6.80;6.10;;;;;;;;;;524716;28;1698;-92
2022/07/24 01:30:58;;;;;;;7.07;6.35;;;;;;;;;;521764;28;1666;-91
2022/07/24 01:31:13;;;;;;;7.90;6.28;;;;;;;;;;520896;28;1647;-88
2022/07/24 01:31:29;;;;;;;8.83;6.17;;;;;;;;;;522149;28;1490;-91
2022/07/24 01:31:44;;;;;;;8.02;6.15;;;;;;;;;;523737;28;1561;-88
2022/07/24 01:32:00;;;;;;;7.17;6.40;;;;;;;;;;523226;28;1642;-87
2022/07/24 01:32:15;;;;;;;6.90;6.20;;;;;;;;;;524090;28;1635;-90
2022/07/24 01:32:31;;;;;;;7.45;6.15;;;;;;;;;;524967;28;1555;-92
2022/07/24 01:32:46;;;;;;;7.13;5.90;;;;;;;;;;523996;28;1540;-90
2022/07/24 01:33:01;;;;;;;6.65;5.88;;;;;;;;;;526423;28;1605;-90
2022/07/24 01:33:17;;;;;;;7.43;6.17;;;;;;;;;;525464;28;1721;-91
2022/07/24 01:33:32;;;;;;;7.20;6.20;;;;;;;;;;526011;28;1534;-88
2022/07/24 01:33:48;;;;;;;6.73;6.03;;;;;;;;;;523521;28;1567;-91
2022/07/24 01:34:04;;;;;;;6.70;6.00;;;;;;;;;;521212;28;1520;-92
2022/07/24 01:34:19;;;;;;;6.95;6.22;;;;;;;;;;521255;28;1517;-90
2022/07/24 01:34:35;;;;;;;6.77;6.07;;;;;;;;;;522090;28;1532;-90
2022/07/24 01:34:50;;;;;;;7.23;6.20;;;;;;;;;;519548;28;1546;-89
2022/07/24 01:35:06;;;;;;;7.35;6.25;;;;;;;;;;520183;28;1474;-91
2022/07/24 01:35:22;;;;;;;6.90;6.20;;;;;;;;;;521967;28;1524;-90
2022/07/24 01:35:37;;;;;;;7.00;6.23;;;;;;;;;;519726;28;1550;-92
2022/07/24 01:35:52;;;;;;;7.13;6.20;;;;;;;;;;521124;28;1624;-90
2022/07/24 01:36:08;;;;;;;7.00;6.13;;;;;;;;;;520535;28;1441;-89
2022/07/24 01:36:23;;;;;;;7.15;6.15;;;;;;;;;;519518;28;1514;-91
2022/07/24 01:36:39;;;;;;;6.90;6.20;;;;;;;;;;517870;28;1558;-91
2022/07/24 01:36:55;;;;;;;7.05;6.35;;;;;;;;;;518972;28;1570;-92
2022/07/24 01:37:10;;;;;;;6.90;6.13;;;;;;;;;;521232;28;1738;-90
2022/07/24 01:37:26;;;;;;;6.87;6.20;;;;;;;;;;521325;28;1683;-87